createdAt,value
2022-12-16T00:00:11.904Z,82.85
2022-12-16T00:02:39.283Z,85.40
2022-12-16T00:05:07.848Z,76.10
2022-12-16T00:07:35.300Z,80.88
2022-12-16T00:10:02.592Z,85.18
2022-12-16T00:12:29.843Z,84.50
2022-12-16T00:14:57.120Z,98.53
2022-12-16T00:17:24.369Z,92.18
2022-12-16T00:19:51.608Z,98.53
2022-12-16T00:22:19.467Z,82.97
2022-12-16T00:24:46.717Z,87.25
2022-12-16T00:27:13.976Z,91.18
2022-12-16T00:29:41.268Z,86.47
2022-12-16T00:32:09.958Z,102.82
2022-12-16T00:34:37.198Z,88.88
2022-12-16T00:37:04.437Z,97.70
2022-12-16T00:39:31.681Z,99.38
2022-12-16T00:41:59.118Z,98.15
2022-12-16T00:44:26.389Z,106.85
2022-12-16T00:46:53.649Z,90.95
2022-12-16T00:49:22.329Z,91.05
2022-12-16T00:51:49.724Z,103.53
2022-12-16T00:54:17.800Z,103.00
2022-12-16T00:56:45.044Z,107.38
2022-12-16T00:59:12.313Z,102.35
2022-12-16T01:01:39.642Z,95.38
2022-12-16T01:04:06.967Z,104.85
2022-12-16T01:06:34.201Z,92.68
2022-12-16T01:09:01.538Z,92.28
2022-12-16T01:11:28.778Z,97.15
2022-12-16T01:13:56.043Z,104.60
2022-12-16T01:16:23.404Z,97.20
2022-12-16T01:18:50.708Z,92.50
2022-12-16T01:21:19.058Z,101.22
2022-12-16T01:23:48.300Z,99.32
2022-12-16T01:26:17.171Z,108.78
2022-12-16T01:28:44.762Z,98.63
2022-12-16T01:31:13.152Z,85.95
2022-12-16T01:33:40.644Z,103.80
2022-12-16T01:36:08.812Z,99.28
2022-12-16T01:38:36.581Z,100.63
2022-12-16T01:41:04.421Z,94.43
2022-12-16T01:43:33.333Z,103.22
2022-12-16T01:46:13.931Z,103.45
2022-12-16T01:48:41.636Z,107.95
2022-12-16T01:51:12.661Z,110.63
2022-12-16T01:56:28.890Z,104.53
2022-12-16T01:58:57.325Z,108.22
2022-12-16T02:01:24.951Z,108.78
2022-12-16T02:03:53.777Z,105.70
2022-12-16T02:06:21.566Z,124.43
2022-12-16T02:08:53.369Z,105.53
2022-12-16T02:16:53.157Z,80.32
2022-12-16T02:19:42.546Z,86.82
2022-12-16T02:22:28.915Z,96.68
2022-12-16T02:25:11.494Z,93.30
2022-12-16T02:30:35.523Z,87.57
2022-12-16T02:33:14.557Z,97.68
2022-12-16T02:35:47.506Z,75.85
2022-12-16T02:38:23.672Z,92.35
2022-12-16T02:40:50.870Z,80.30
2022-12-16T02:46:22.089Z,78.95
2022-12-16T02:48:49.377Z,84.30
2022-12-16T02:51:17.106Z,82.57
2022-12-16T02:53:45.412Z,69.90
2022-12-16T02:56:20.937Z,84.53
2022-12-16T02:59:07.115Z,69.10
2022-12-16T03:04:45.713Z,60.08
2022-12-16T03:07:15.227Z,71.63
2022-12-16T03:09:43.188Z,56.20
2022-12-16T03:12:12.784Z,68.57
2022-12-16T03:14:41.873Z,59.13
2022-12-16T03:19:58.326Z,69.38
2022-12-16T03:22:29.325Z,57.15
2022-12-16T03:24:56.650Z,28.35
2022-12-16T03:27:23.880Z,61.05
2022-12-16T03:30:04.173Z,61.40
2022-12-16T03:32:31.392Z,62.03
2022-12-16T03:37:48.247Z,53.47
2022-12-16T03:40:15.958Z,57.53
2022-12-16T03:42:43.869Z,57.03
2022-12-16T03:45:17.001Z,56.65
2022-12-16T03:47:49.443Z,52.97
2022-12-16T03:50:17.190Z,54.58
2022-12-16T03:52:53.549Z,55.95
2022-12-16T03:55:20.832Z,55.15
2022-12-16T03:57:48.087Z,59.88
2022-12-16T04:00:15.493Z,55.97
2022-12-16T04:02:43.266Z,45.17
2022-12-16T04:05:10.827Z,55.95
2022-12-16T04:10:43.804Z,54.55
2022-12-16T04:13:30.201Z,53.95
2022-12-16T04:16:16.202Z,54.83
2022-12-16T04:19:02.427Z,52.05
2022-12-16T04:21:48.525Z,54.28
2022-12-16T04:27:34.592Z,51.57
2022-12-16T04:30:20.325Z,48.83
2022-12-16T04:33:07.481Z,58.28
2022-12-16T04:35:53.505Z,50.97
2022-12-16T04:38:39.462Z,52.78
2022-12-16T04:44:29.219Z,59.35
2022-12-16T04:47:15.487Z,54.97
2022-12-16T04:50:01.542Z,48.92
2022-12-16T04:52:47.730Z,46.53
2022-12-16T04:55:33.606Z,56.85
2022-12-16T05:01:23.781Z,51.08
2022-12-16T05:04:26.676Z,45.38
2022-12-16T05:07:12.602Z,49.13
2022-12-16T05:09:58.592Z,60.95
2022-12-16T05:12:44.418Z,48.75
2022-12-16T05:15:30.492Z,65.20
2022-12-16T05:18:16.765Z,55.47
2022-12-16T05:21:02.850Z,53.40
2022-12-16T05:23:49.106Z,60.05
2022-12-16T05:26:35.208Z,50.42
2022-12-16T05:29:21.368Z,60.60
2022-12-16T05:35:11.195Z,48.20
2022-12-16T05:37:57.457Z,43.63
2022-12-16T05:40:43.719Z,47.75
2022-12-16T05:43:29.854Z,48.22
2022-12-16T05:46:16.157Z,45.65
2022-12-16T05:49:02.358Z,46.60
2022-12-16T05:51:48.410Z,45.65
2022-12-16T05:54:34.544Z,52.78
2022-12-16T05:57:20.477Z,51.20
2022-12-16T06:00:06.641Z,44.20
2022-12-16T06:02:52.887Z,45.92
2022-12-16T06:05:38.797Z,43.03
2022-12-16T06:08:24.776Z,46.22
2022-12-16T06:11:10.952Z,49.28
2022-12-16T06:13:56.848Z,51.08
2022-12-16T06:16:43.230Z,44.90
2022-12-16T06:19:29.308Z,46.95
2022-12-16T06:22:15.087Z,42.83
2022-12-16T06:25:01.235Z,50.60
2022-12-16T06:27:47.311Z,48.72
2022-12-16T06:30:33.539Z,53.60
2022-12-16T06:33:19.624Z,49.22
2022-12-16T06:36:05.722Z,46.70
2022-12-16T06:38:51.714Z,51.10
2022-12-16T06:41:37.808Z,48.50
2022-12-16T06:44:23.747Z,52.53
2022-12-16T06:47:09.973Z,45.58
2022-12-16T06:49:55.923Z,51.17
2022-12-16T06:52:41.982Z,58.42
2022-12-16T06:55:27.889Z,53.35
2022-12-16T06:58:17.527Z,41.65
2022-12-16T07:01:23.636Z,50.53
2022-12-16T07:04:09.533Z,40.58
2022-12-16T07:06:55.330Z,49.50
2022-12-16T07:09:41.366Z,46.05
2022-12-16T07:12:27.477Z,50.55
2022-12-16T07:15:13.613Z,53.92
2022-12-16T07:18:00.382Z,45.45
2022-12-16T07:20:46.570Z,47.63
2022-12-16T07:23:32.781Z,47.10
2022-12-16T07:26:18.828Z,48.60
2022-12-16T07:29:05.022Z,45.40
2022-12-16T07:31:51.194Z,51.78
2022-12-16T07:34:42.035Z,47.13
2022-12-16T07:37:29.567Z,50.88
2022-12-16T07:40:15.872Z,50.10
2022-12-16T07:43:01.923Z,55.20
2022-12-16T07:45:47.814Z,48.65
2022-12-16T07:48:33.844Z,54.42
2022-12-16T07:51:19.611Z,53.65
2022-12-16T07:54:05.823Z,53.47
2022-12-16T07:56:51.873Z,50.05
2022-12-16T07:59:38.012Z,49.75
2022-12-16T08:02:24.041Z,51.05
2022-12-16T08:05:09.793Z,53.72
2022-12-16T08:07:58.787Z,42.70
2022-12-16T08:10:45.297Z,46.45
2022-12-16T08:13:31.902Z,47.45
2022-12-16T08:16:18.326Z,50.88
2022-12-16T08:19:10.538Z,48.20
2022-12-16T08:21:57.366Z,46.22
2022-12-16T08:24:46.910Z,52.45
2022-12-16T08:27:37.446Z,47.20
2022-12-16T08:30:23.636Z,48.92
2022-12-16T08:33:18.285Z,56.90
2022-12-16T08:36:05.639Z,44.28
2022-12-16T08:38:51.822Z,49.35
2022-12-16T08:41:38.658Z,53.08
2022-12-16T08:44:24.702Z,48.63
2022-12-16T08:47:10.695Z,45.05
2022-12-16T08:49:59.851Z,47.08
2022-12-16T08:52:48.452Z,49.85
2022-12-16T08:55:55.889Z,49.65
2022-12-16T08:58:41.839Z,56.45
2022-12-16T09:01:27.509Z,61.40
2022-12-16T09:04:13.729Z,47.50
2022-12-16T09:06:59.948Z,54.72
2022-12-16T09:09:46.003Z,57.00
2022-12-16T09:12:32.245Z,54.00
2022-12-16T09:15:18.142Z,56.60
2022-12-16T09:18:04.194Z,54.45
2022-12-16T09:20:52.291Z,49.97
2022-12-16T09:23:38.128Z,54.40
2022-12-16T09:26:24.232Z,53.85
2022-12-16T09:29:10.331Z,56.70
2022-12-16T09:31:56.406Z,55.78
2022-12-16T09:34:42.221Z,54.13
2022-12-16T09:37:28.302Z,50.63
2022-12-16T09:40:21.981Z,52.45
2022-12-16T09:43:07.735Z,47.20
2022-12-16T09:45:53.815Z,46.55
2022-12-16T09:48:45.625Z,45.28
2022-12-16T09:51:32.923Z,49.80
2022-12-16T09:54:19.361Z,50.20
2022-12-16T09:57:05.807Z,53.15
2022-12-16T09:59:55.446Z,49.25
2022-12-16T10:02:41.787Z,47.67
2022-12-16T10:05:35.328Z,46.95
2022-12-16T10:08:21.132Z,52.35
2022-12-16T10:11:15.793Z,57.03
2022-12-16T10:14:01.856Z,52.33
2022-12-16T10:17:16.816Z,45.47
2022-12-16T10:20:22.188Z,58.38
2022-12-16T10:23:26.758Z,50.78
2022-12-16T10:26:34.192Z,47.45
2022-12-16T10:29:27.330Z,44.88
2022-12-16T10:32:26.957Z,41.25
2022-12-16T10:35:14.539Z,46.33
2022-12-16T10:38:01.364Z,56.70
2022-12-16T10:40:49.935Z,45.35
2022-12-16T10:43:50.797Z,55.58
2022-12-16T10:46:39.862Z,51.88
2022-12-16T10:49:28.110Z,47.63
2022-12-16T10:52:14.201Z,57.15
2022-12-16T10:55:02.369Z,55.50
2022-12-16T10:58:06.805Z,61.05
2022-12-16T11:01:09.675Z,59.72
2022-12-16T11:03:56.891Z,61.63
2022-12-16T11:06:56.607Z,64.80
2022-12-16T11:09:44.979Z,58.28
2022-12-16T11:12:33.914Z,60.95
2022-12-16T11:15:29.333Z,67.05
2022-12-16T11:18:25.780Z,65.22
2022-12-16T11:21:26.721Z,63.90
2022-12-16T11:27:25.198Z,63.85
2022-12-16T11:30:18.603Z,67.05
2022-12-16T11:33:15.047Z,71.85
2022-12-16T11:36:21.082Z,67.05
2022-12-16T11:39:08.689Z,65.72
2022-12-16T11:41:59.511Z,71.40
2022-12-16T11:44:48.221Z,71.65
2022-12-16T11:47:39.838Z,72.75
2022-12-16T11:50:28.651Z,66.60
2022-12-16T11:53:26.332Z,73.40
2022-12-16T11:56:16.412Z,72.90
2022-12-16T11:59:07.479Z,75.82
2022-12-16T12:04:41.927Z,73.95
2022-12-16T12:07:42.696Z,75.70
2022-12-16T12:10:49.053Z,68.47
2022-12-16T12:13:47.260Z,54.42
2022-12-16T12:16:45.253Z,64.05
2022-12-16T12:19:42.307Z,71.85
2022-12-16T12:22:50.422Z,66.68
2022-12-16T12:25:41.890Z,69.20
2022-12-16T12:28:27.874Z,77.82
2022-12-16T12:31:20.663Z,67.20
2022-12-16T12:34:28.491Z,79.03
2022-12-16T12:37:19.605Z,74.22
2022-12-16T12:40:06.531Z,69.40
2022-12-16T12:43:05.764Z,74.18
2022-12-16T12:46:00.425Z,75.88
2022-12-16T12:49:03.620Z,68.57
2022-12-16T12:52:04.547Z,59.67
2022-12-16T12:57:38.239Z,64.30
2022-12-16T13:00:25.869Z,71.55
2022-12-16T13:03:12.038Z,73.22
2022-12-16T13:05:58.692Z,72.75
2022-12-16T13:09:13.642Z,73.82
2022-12-16T13:12:19.663Z,67.93
2022-12-16T13:15:11.295Z,63.22
2022-12-16T13:18:16.008Z,58.70
2022-12-16T13:21:02.027Z,67.47
2022-12-16T13:23:48.323Z,68.85
2022-12-16T13:26:35.470Z,63.13
2022-12-16T13:29:40.171Z,61.92
2022-12-16T13:32:26.094Z,67.60
2022-12-16T13:35:29.638Z,62.13
2022-12-16T13:38:39.198Z,65.53
2022-12-16T13:41:46.754Z,66.25
2022-12-16T13:44:52.366Z,64.93
2022-12-16T13:47:59.639Z,72.25
2022-12-16T13:51:05.681Z,68.57
2022-12-16T13:54:02.329Z,66.00
2022-12-16T13:56:55.549Z,74.68
2022-12-16T13:59:44.923Z,67.68
2022-12-16T14:02:31.308Z,64.55
2022-12-16T14:05:17.320Z,60.55
2022-12-16T14:08:03.594Z,65.53
2022-12-16T14:10:55.364Z,74.65
2022-12-16T14:13:52.211Z,66.43
2022-12-16T14:16:52.156Z,63.20
2022-12-16T14:20:02.372Z,72.77
2022-12-16T14:23:09.304Z,72.63
2022-12-16T14:25:55.215Z,69.10
2022-12-16T14:28:53.568Z,81.57
2022-12-16T14:31:52.194Z,85.38
2022-12-16T14:34:46.016Z,74.20
2022-12-16T14:37:35.306Z,76.78
2022-12-16T14:40:22.102Z,74.05
2022-12-16T14:43:13.186Z,75.90
2022-12-16T14:46:08.188Z,68.72
2022-12-16T14:48:57.838Z,67.28
2022-12-16T14:51:43.393Z,75.93
2022-12-16T14:54:41.418Z,73.80
2022-12-16T14:57:41.732Z,77.00
2022-12-16T15:00:27.321Z,79.03
2022-12-16T15:03:14.866Z,70.90
2022-12-16T15:06:02.069Z,86.82
2022-12-16T15:08:50.713Z,78.55
2022-12-16T15:11:39.735Z,73.32
2022-12-16T15:14:28.483Z,76.80
2022-12-16T15:17:14.681Z,86.07
2022-12-16T15:20:10.450Z,84.05
2022-12-16T15:22:56.742Z,67.38
2022-12-16T15:25:45.128Z,83.93
2022-12-16T15:28:53.562Z,83.63
2022-12-16T15:31:45.268Z,80.32
2022-12-16T15:35:10.918Z,79.30
2022-12-16T15:38:04.310Z,89.15
2022-12-16T15:40:52.361Z,87.38
2022-12-16T15:43:54.844Z,88.55
2022-12-16T15:46:46.243Z,89.50
2022-12-16T15:49:48.660Z,89.95
2022-12-16T15:52:49.003Z,90.10
2022-12-16T15:56:31.277Z,84.20
2022-12-16T15:59:42.500Z,90.68
2022-12-16T16:02:36.886Z,78.03
2022-12-16T16:05:33.651Z,95.07
2022-12-16T16:08:19.358Z,84.63
2022-12-16T16:11:05.133Z,90.53
2022-12-16T16:13:50.734Z,87.15
2022-12-16T16:16:36.377Z,86.05
2022-12-16T16:19:22.553Z,86.28
2022-12-16T16:22:08.085Z,95.72
2022-12-16T16:24:53.633Z,83.82
2022-12-16T16:27:39.333Z,88.03
2022-12-16T16:30:25.622Z,88.18
2022-12-16T16:33:10.864Z,87.28
2022-12-16T16:35:56.311Z,86.95
2022-12-16T16:38:41.883Z,91.05
2022-12-16T16:41:33.859Z,85.18
2022-12-16T16:44:20.279Z,89.75
2022-12-16T16:47:06.362Z,100.47
2022-12-16T16:49:59.736Z,87.00
2022-12-16T16:52:46.570Z,80.00
2022-12-16T16:55:37.816Z,95.18
2022-12-16T16:58:26.322Z,91.32
2022-12-16T17:01:12.159Z,85.13
2022-12-16T17:03:57.589Z,84.72
2022-12-16T17:06:43.375Z,83.32
2022-12-16T17:09:29.014Z,78.65
2022-12-16T17:12:14.450Z,84.15
2022-12-16T17:15:10.703Z,85.78
2022-12-16T17:17:56.295Z,86.30
2022-12-16T17:20:42.039Z,99.63
2022-12-16T17:23:27.614Z,83.32
2022-12-16T17:26:13.183Z,93.25
2022-12-16T17:28:58.653Z,87.60
2022-12-16T17:31:44.256Z,84.20
2022-12-16T17:34:29.893Z,83.45
2022-12-16T17:37:15.213Z,90.13
2022-12-16T17:40:00.927Z,78.63
2022-12-16T17:42:46.877Z,90.90
2022-12-16T17:45:32.426Z,80.30
2022-12-16T17:48:18.137Z,86.78
2022-12-16T17:51:03.702Z,81.13
2022-12-16T17:53:57.079Z,78.72
2022-12-16T17:56:44.112Z,86.60
2022-12-16T17:59:29.829Z,83.13
2022-12-16T18:02:15.542Z,94.00
2022-12-16T18:05:01.305Z,77.60
2022-12-16T18:07:46.924Z,90.30
2022-12-16T18:10:32.387Z,85.57
2022-12-16T18:13:18.174Z,87.00
2022-12-16T18:16:10.869Z,74.10
2022-12-16T18:18:56.331Z,95.85
2022-12-16T18:21:41.950Z,89.35
2022-12-16T18:24:28.059Z,84.22
2022-12-16T18:27:13.313Z,88.00
2022-12-16T18:29:58.860Z,86.80
2022-12-16T18:32:44.245Z,89.90
2022-12-16T18:35:30.987Z,90.13
2022-12-16T18:38:16.854Z,92.35
2022-12-16T18:41:02.207Z,96.78
2022-12-16T18:43:47.916Z,90.47
2022-12-16T18:46:33.104Z,97.65
2022-12-16T18:49:18.691Z,83.75
2022-12-16T18:52:04.232Z,89.15
2022-12-16T18:54:49.997Z,85.90
2022-12-16T18:57:39.625Z,84.53
2022-12-16T19:00:26.306Z,85.03
2022-12-16T19:03:22.524Z,92.50
2022-12-16T19:06:14.809Z,96.75
2022-12-16T19:09:00.531Z,84.50
2022-12-16T19:11:46.660Z,95.25
2022-12-16T19:14:32.206Z,81.78
2022-12-16T19:17:17.796Z,81.30
2022-12-16T19:20:03.479Z,80.40
2022-12-16T19:22:49.041Z,82.65
2022-12-16T19:25:34.645Z,88.10
2022-12-16T19:28:20.256Z,77.72
2022-12-16T19:31:15.486Z,90.20
2022-12-16T19:34:04.756Z,100.38
2022-12-16T19:36:50.469Z,93.72
2022-12-16T19:39:35.895Z,94.03
2022-12-16T19:42:21.548Z,95.53
2022-12-16T19:45:07.102Z,98.18
2022-12-16T19:47:52.764Z,102.88
2022-12-16T19:50:38.889Z,98.95
2022-12-16T19:53:24.202Z,91.22
2022-12-16T19:56:19.670Z,91.43
2022-12-16T19:59:05.172Z,89.07
2022-12-16T20:01:50.819Z,97.28
2022-12-16T20:04:37.202Z,93.00
2022-12-16T20:07:23.399Z,93.38
2022-12-16T20:10:09.159Z,91.03
2022-12-16T20:12:56.178Z,85.82
2022-12-16T20:15:41.984Z,86.38
2022-12-16T20:18:38.156Z,96.97
2022-12-16T20:21:23.793Z,94.85
2022-12-16T20:24:09.284Z,92.18
2022-12-16T20:26:55.316Z,87.80
2022-12-16T20:29:40.783Z,83.75
2022-12-16T20:32:26.371Z,91.68
2022-12-16T20:35:11.904Z,87.25
2022-12-16T20:37:57.382Z,87.50
2022-12-16T20:40:43.062Z,73.93
2022-12-16T20:43:30.994Z,79.70
2022-12-16T20:46:16.780Z,69.07
2022-12-16T20:49:02.335Z,87.10
2022-12-16T20:51:47.805Z,95.43
2022-12-16T20:54:33.479Z,84.95
2022-12-16T20:57:19.125Z,84.70
2022-12-16T21:00:04.530Z,85.93
2022-12-16T21:02:50.209Z,87.00
2022-12-16T21:05:35.824Z,81.85
2022-12-16T21:08:21.545Z,88.13
2022-12-16T21:11:07.591Z,84.72
2022-12-16T21:14:42.849Z,92.75
2022-12-16T21:16:58.555Z,95.60
2022-12-16T21:19:44.202Z,90.18
2022-12-16T21:22:29.612Z,77.68
2022-12-16T21:25:16.728Z,84.72
2022-12-16T21:28:05.379Z,68.75
2022-12-16T21:30:51.064Z,85.65
2022-12-16T21:33:38.837Z,82.35
2022-12-16T21:36:25.188Z,81.63
2022-12-16T21:39:10.750Z,88.38
2022-12-16T21:41:56.349Z,81.82
2022-12-16T21:44:41.936Z,79.80
2022-12-16T21:47:27.462Z,88.90
2022-12-16T21:50:20.858Z,73.78
2022-12-16T21:53:07.084Z,65.80
2022-12-16T21:55:52.754Z,78.35
2022-12-16T21:58:39.018Z,69.82
2022-12-16T22:01:24.814Z,56.63
2022-12-16T22:04:10.378Z,63.38
2022-12-16T22:06:56.062Z,60.03
2022-12-16T22:09:41.528Z,60.10
2022-12-16T22:12:27.080Z,59.88
2022-12-16T22:15:12.805Z,56.70
2022-12-16T22:17:58.916Z,59.30
2022-12-16T22:20:45.233Z,63.95
2022-12-16T22:23:30.971Z,49.90
2022-12-16T22:26:18.046Z,62.50
2022-12-16T22:29:03.685Z,63.03
2022-12-16T22:31:49.291Z,64.22
2022-12-16T22:34:34.605Z,59.92
2022-12-16T22:37:20.116Z,59.50
2022-12-16T22:40:05.690Z,62.35
2022-12-16T22:42:51.072Z,67.50
2022-12-16T22:45:40.400Z,56.83
2022-12-16T22:48:25.958Z,59.38
2022-12-16T22:51:11.722Z,59.60
2022-12-16T22:53:57.374Z,49.83
2022-12-16T22:56:42.937Z,53.15
2022-12-16T22:59:28.702Z,55.38
2022-12-16T23:02:14.268Z,50.78
2022-12-16T23:04:59.915Z,57.45
2022-12-16T23:07:45.459Z,49.90
2022-12-16T23:10:30.966Z,60.40
2022-12-16T23:13:16.695Z,53.60
2022-12-16T23:16:02.343Z,51.92
2022-12-16T23:18:48.705Z,46.70
2022-12-16T23:21:38.390Z,45.25
2022-12-16T23:24:24.385Z,46.28
2022-12-16T23:27:10.062Z,41.13
2022-12-16T23:29:56.652Z,37.85
2022-12-16T23:32:42.855Z,37.70
2022-12-16T23:35:28.368Z,43.05
2022-12-16T23:38:25.109Z,44.42
2022-12-16T23:41:17.376Z,48.83
2022-12-16T23:44:03.646Z,48.90
2022-12-16T23:46:49.179Z,55.40
2022-12-16T23:49:34.848Z,52.05
2022-12-16T23:52:20.471Z,50.47
2022-12-16T23:55:05.963Z,46.80
2022-12-16T23:57:51.658Z,57.78
